Wednesday, December 19, 2018, 1:15 AM EST
Back to Local

KMPO, Mt Pocono Pocono Mountains

Location: Pocono Summit, PA, United States Lat: 41.133
Local Time: 1:15 AM EST ( 6:15 GMT) Lon: -75.383
Time Zone: US/Eastern Elev: 1915 ft

Show me the last for .
Show Decoded

2018-12-19 00:53 METAR KMPO 190553Z AUTO 30010KT CLR M09/M11 A3003 RMK AO2 SLP201 T10891106 11067
                 21094 58006 $ =
2018-12-18 23:53 METAR KMPO 190453Z AUTO 29008KT CLR M08/M11 A3004 RMK AO2 SLP203 T10831106
                 410221083 $ =
2018-12-18 22:53 METAR KMPO 190353Z AUTO 30008KT 10SM CLR M08/M10 A3005 RMK AO2 SLP207 T10831100
                 $ =
2018-12-18 21:53 METAR KMPO 190253Z AUTO 32011KT 10SM CLR M08/M10 A3005 RMK AO2 SLP208 T10781100
                 51003 $ =
2018-12-18 20:53 METAR KMPO 190153Z AUTO 30006KT 10SM CLR M08/M10 A3005 RMK AO2 SLP208 T10781100
                 $ =
2018-12-18 19:53 METAR KMPO 190053Z AUTO 30011KT 10SM CLR M07/M10 A3005 RMK AO2 SLP208 T10721100
                 $ =
2018-12-18 18:53 METAR KMPO 182353Z AUTO 30013KT 10SM CLR M07/M10 A3004 RMK AO2 SLP204 T10671100
                 11044 21067 50005 $ =
2018-12-18 17:53 METAR KMPO 182253Z AUTO 29010KT 10SM CLR M06/M10 A3006 RMK AO2 SLP208 T10611100
                 $ =
2018-12-18 16:53 METAR KMPO 182153Z AUTO 29011KT 10SM CLR M06/M10 A3002 RMK AO2 PRESFR SLP194
                 T10611100 $ =
2018-12-18 15:53 METAR KMPO 182053Z AUTO 30014G22KT 10SM CLR M05/M10 A3003 RMK AO2 SLP195
                 T10501100 53014 $ =
2018-12-18 14:53 METAR KMPO 181953Z AUTO 29011KT 10SM FEW026 M04/M09 A3001 RMK AO2 SLP188
                 T10441094 $ =
2018-12-18 13:53 METAR KMPO 181853Z AUTO 31015G22KT 10SM CLR M05/M09 A2999 RMK AO2 SLP183
                 T10501089 $ =
2018-12-18 13:05 METAR KMPO 181805Z AUTO 31017G25KT 10SM SCT024 M05/M09 A2999 RMK AO2 T10501094 $
                 =
2018-12-18 12:53 METAR KMPO 181753Z AUTO 30019G26KT 10SM BKN024 M04/M09 A2998 RMK AO2 PK WND
                 31027/1710 SLP178 60000 T10441089 11044 21067 51005 $ =
2018-12-18 11:53 METAR KMPO 181653Z AUTO 30015G27KT 10SM BKN020 M06/M09 A2998 RMK AO2 PK WND
                 31027/1647 SNB11E22 SLP179 P0000 T10561089 $ =
2018-12-18 10:53 METAR KMPO 181553Z AUTO 31015G20KT 10SM OVC018 M06/M08 A3000 RMK AO2 PK WND
                 31029/1504 UPB13E17SNE13 SLP183 P0000 T10561083 $ =
2018-12-18 09:53 METAR KMPO 181453Z AUTO 32021G32KT 9SM -SN OVC021 M06/M08 A2997 RMK AO2 PK WND
                 31034/1435 UPB39E47SNB31E39B47 SLP173 P0000 60000 T10611083 53021 $ =
2018-12-18 08:53 METAR KMPO 181353Z AUTO 31018G26KT 10SM OVC021 M06/M09 A2994 RMK AO2 PK WND
                 31042/1317 UPB20E48SNE20 SLP165 P0000 T10611094 $ =
2018-12-18 07:53 METAR KMPO 181253Z AUTO 32023G32KT 6SM -SN OVC024 M06/M09 A2992 RMK AO2 PK WND
                 31034/1232 SLP156 P0000 T10611089 $ =
2018-12-18 06:53 METAR KMPO 181153Z AUTO 30020G35KT 9SM -SN OVC027 M06/M09 A2990 RMK AO2 PK WND
                 31035/1147 SNB46 SLP150 P0000 60000 T10561089 11028 21056 53019 $ =
2018-12-18 06:00 METAR KMPO 181100Z AUTO 31023G30KT 10SM OVC029 M06/M09 A2988 RMK AO2 PK WND
                 31030/1100 T10561089 =
2018-12-18 05:53 METAR KMPO 181053Z AUTO 31022G31KT 10SM OVC031 M06/M09 A2987 RMK AO2 PK WND
                 30039/1020 UPB12E32 SLP140 P0000 T10561089 =
2018-12-18 05:34 METAR KMPO 181034Z AUTO 30022G33KT 10SM OVC031 M06/M09 A2987 RMK AO2 PK WND
                 30039/1020 UPB12E32 P0000 T10561094 =
2018-12-18 05:01 METAR KMPO 181001Z AUTO 31024G33KT 10SM OVC029 M06/M09 A2986 RMK AO2 PK WND
                 31033/1000 T10561094 =
2018-12-18 04:53 METAR KMPO 180953Z AUTO 30022G37KT 10SM OVC031 M06/M09 A2986 RMK AO2 PK WND
                 31037/0950 UPB17E35SNE14 SLP135 P0000 T10561094 =
2018-12-18 03:53 METAR KMPO 180853Z AUTO 30020G32KT 7SM -SN SCT022 OVC034 M04/M08 A2984 RMK AO2
                 PK WND 32034/0838 UPB37E47SNB47 SLP128 P0000 60000 T10441078 51030 =
2018-12-18 03:00 METAR KMPO 180800Z AUTO 30018G27KT 10SM BKN029 OVC036 M04/M08 A2981 RMK AO2
                 T10391078 =
2018-12-18 02:53 METAR KMPO 180753Z AUTO 30018G27KT 10SM BKN030 OVC036 M04/M08 A2981 RMK AO2 PK
                 WND 30033/0703 UPE00 SLP117 P0000 T10391078 =
2018-12-18 01:53 METAR KMPO 180653Z AUTO 30024G38KT 10SM UP SCT037 M03/M08 A2979 RMK AO2 PK WND
                 33040/0625 SLP107 P0000 T10331078 =

Support USWX by starting your Amazon purchase here.